createdAt,value
2024-02-11T00:00:19.813Z,10.37
2024-02-11T00:01:19.972Z,10.40
2024-02-11T00:02:19.719Z,10.34
2024-02-11T00:03:19.595Z,10.37
2024-02-11T00:04:19.556Z,10.39
2024-02-11T00:05:19.648Z,10.40
2024-02-11T00:06:19.629Z,10.39
2024-02-11T00:07:19.611Z,10.37
2024-02-11T00:08:19.567Z,10.39
2024-02-11T00:09:19.573Z,10.42
2024-02-11T00:10:19.493Z,10.43
2024-02-11T00:11:19.597Z,10.40
2024-02-11T00:12:19.515Z,10.33
2024-02-11T00:13:19.498Z,10.30
2024-02-11T00:14:19.529Z,10.22
2024-02-11T00:15:19.461Z,10.24
2024-02-11T00:16:19.438Z,10.26
2024-02-11T00:17:19.441Z,10.28
2024-02-11T00:18:19.437Z,10.26
2024-02-11T00:19:19.530Z,10.32
2024-02-11T00:20:19.472Z,10.33
2024-02-11T00:21:19.401Z,10.33
2024-02-11T00:22:19.367Z,10.37
2024-02-11T00:23:19.403Z,10.37
2024-02-11T00:24:19.342Z,10.40
2024-02-11T00:25:19.385Z,10.37
2024-02-11T00:26:19.476Z,10.33
2024-02-11T00:27:19.344Z,10.26
2024-02-11T00:28:19.299Z,10.25
2024-02-11T00:29:19.382Z,10.25
2024-02-11T00:30:19.290Z,10.25
2024-02-11T00:31:19.347Z,10.28
2024-02-11T00:32:19.436Z,10.30
2024-02-11T00:33:19.367Z,10.36
2024-02-11T00:34:19.412Z,10.37
2024-02-11T00:35:19.983Z,10.36
2024-02-11T00:36:19.248Z,10.30
2024-02-11T00:37:19.268Z,10.30
2024-02-11T00:38:19.322Z,10.25
2024-02-11T00:39:19.271Z,10.19
2024-02-11T00:40:19.225Z,10.18
2024-02-11T00:41:19.270Z,10.18
2024-02-11T00:42:19.171Z,10.17
2024-02-11T00:43:19.300Z,10.17
2024-02-11T00:44:19.315Z,10.21
2024-02-11T00:45:19.272Z,10.24
2024-02-11T00:46:20.032Z,10.28
2024-02-11T00:47:19.548Z,10.28
2024-02-11T00:48:19.405Z,10.33
2024-02-11T00:49:19.121Z,10.26
2024-02-11T00:50:19.185Z,10.22
2024-02-11T00:51:19.223Z,10.24
2024-02-11T00:52:19.057Z,10.25
2024-02-11T00:53:19.164Z,10.28
2024-02-11T00:54:19.016Z,10.30
2024-02-11T00:55:19.090Z,10.28
2024-02-11T00:56:19.074Z,10.36
2024-02-11T00:57:19.170Z,10.28
2024-02-11T00:58:18.983Z,10.32
2024-02-11T00:59:19.105Z,10.34
2024-02-11T01:00:18.999Z,10.32
2024-02-11T01:01:18.992Z,10.28
2024-02-11T01:02:19.064Z,10.24
2024-02-11T01:03:19.029Z,10.22
2024-02-11T01:04:18.966Z,10.17
2024-02-11T01:05:18.993Z,10.21
2024-02-11T01:06:18.915Z,10.24
2024-02-11T01:07:18.937Z,10.25
2024-02-11T01:08:18.948Z,10.19
2024-02-11T01:09:19.201Z,10.21
2024-02-11T01:10:18.885Z,10.18
2024-02-11T01:11:19.012Z,10.17
2024-02-11T01:12:18.906Z,10.14
2024-02-11T01:13:18.908Z,10.10
2024-02-11T01:14:19.009Z,10.10
2024-02-11T01:15:18.889Z,10.10
2024-02-11T01:16:18.906Z,10.17
2024-02-11T01:17:18.858Z,10.15
2024-02-11T01:18:18.782Z,10.19
2024-02-11T01:19:18.890Z,10.17
2024-02-11T01:20:18.847Z,10.17
2024-02-11T01:21:18.779Z,10.14
2024-02-11T01:22:18.828Z,10.12
2024-02-11T01:24:18.725Z,10.14
2024-02-11T01:25:18.756Z,10.15
2024-02-11T01:26:18.749Z,10.18
2024-02-11T01:27:18.768Z,10.14
2024-02-11T01:28:18.739Z,10.10
2024-02-11T01:29:18.751Z,10.12
2024-02-11T01:30:18.680Z,10.10
2024-02-11T01:31:18.630Z,10.10
2024-02-11T01:32:18.777Z,10.07
2024-02-11T01:33:18.790Z,10.03
2024-02-11T01:34:18.647Z,9.97
2024-02-11T01:35:18.702Z,9.97
2024-02-11T01:36:18.567Z,9.96
2024-02-11T01:37:18.637Z,9.94
2024-02-11T01:38:18.576Z,9.91
2024-02-11T01:39:18.646Z,9.89
2024-02-11T01:40:18.685Z,9.88
2024-02-11T01:41:18.536Z,9.97
2024-02-11T01:42:18.596Z,9.96
2024-02-11T01:43:18.510Z,9.97
2024-02-11T01:44:18.570Z,9.97
2024-02-11T01:45:18.506Z,9.94
2024-02-11T01:46:18.576Z,9.96
2024-02-11T01:47:18.622Z,9.94
2024-02-11T01:48:18.487Z,9.94
2024-02-11T01:49:18.442Z,9.97
2024-02-11T01:50:19.387Z,9.97
2024-02-11T01:51:18.420Z,9.99
2024-02-11T01:52:18.429Z,10.00
2024-02-11T01:53:18.487Z,10.00
2024-02-11T01:54:18.369Z,9.99
2024-02-11T01:55:18.423Z,9.94
2024-02-11T01:56:18.387Z,9.91
2024-02-11T01:57:18.346Z,9.88
2024-02-11T01:58:18.405Z,9.88
2024-02-11T01:59:18.402Z,9.94
2024-02-11T02:00:18.316Z,9.99
2024-02-11T02:01:18.342Z,9.94
2024-02-11T02:02:18.385Z,9.94
2024-02-11T02:03:18.317Z,9.96
2024-02-11T02:04:18.342Z,9.96
2024-02-11T02:05:18.514Z,10.03
2024-02-11T02:06:18.364Z,10.04
2024-02-11T02:07:18.257Z,10.03
2024-02-11T02:08:18.278Z,9.93
2024-02-11T02:09:18.192Z,9.88
2024-02-11T02:10:18.274Z,9.81
2024-02-11T02:11:18.335Z,9.82
2024-02-11T02:12:18.205Z,9.83
2024-02-11T02:13:18.190Z,9.83
2024-02-11T02:14:18.274Z,9.83
2024-02-11T02:15:18.217Z,9.88
2024-02-11T02:16:18.151Z,9.88
2024-02-11T02:17:18.256Z,9.88
2024-02-11T02:18:18.176Z,9.89
2024-02-11T02:19:18.119Z,9.89
2024-02-11T02:20:18.166Z,9.89
2024-02-11T02:21:18.084Z,9.86
2024-02-11T02:22:18.089Z,9.82
2024-02-11T02:23:18.202Z,9.78
2024-02-11T02:24:18.117Z,9.79
2024-02-11T02:25:18.147Z,9.78
2024-02-11T02:26:18.105Z,9.76
2024-02-11T02:27:18.024Z,9.78
2024-02-11T02:28:17.991Z,9.79
2024-02-11T02:29:18.134Z,9.82
2024-02-11T02:30:18.169Z,9.88
2024-02-11T02:31:18.115Z,9.88
2024-02-11T02:32:18.106Z,9.82
2024-02-11T02:33:18.017Z,9.79
2024-02-11T02:34:17.950Z,9.79
2024-02-11T02:35:18.022Z,9.83
2024-02-11T02:36:17.938Z,9.86
2024-02-11T02:37:17.947Z,9.85
2024-02-11T02:38:18.035Z,9.85
2024-02-11T02:39:17.858Z,9.83
2024-02-11T02:40:17.873Z,9.86
2024-02-11T02:41:17.885Z,9.91
2024-02-11T02:42:17.939Z,9.88
2024-02-11T02:43:17.905Z,9.88
2024-02-11T02:44:17.851Z,9.91
2024-02-11T02:45:17.797Z,9.93
2024-02-11T02:46:17.923Z,9.93
2024-02-11T02:47:17.850Z,9.93
2024-02-11T02:48:17.949Z,9.88
2024-02-11T02:49:17.831Z,9.85
2024-02-11T02:50:17.854Z,9.82
2024-02-11T02:51:17.740Z,9.81
2024-02-11T02:52:17.804Z,9.82
2024-02-11T02:53:17.931Z,9.81
2024-02-11T02:54:18.018Z,9.76
2024-02-11T02:55:17.742Z,9.76
2024-02-11T02:56:17.771Z,9.76
2024-02-11T02:57:17.735Z,9.73
2024-02-11T02:58:17.683Z,9.78
2024-02-11T02:59:17.661Z,9.79
2024-02-11T03:00:18.090Z,9.78
2024-02-11T03:01:17.662Z,9.75
2024-02-11T03:02:17.798Z,9.79
2024-02-11T03:03:17.656Z,9.88
2024-02-11T03:04:17.794Z,9.83
2024-02-11T03:05:17.703Z,9.79
2024-02-11T03:06:17.802Z,9.81
2024-02-11T03:07:17.643Z,9.83
2024-02-11T03:08:17.604Z,9.83
2024-02-11T03:09:17.533Z,9.81
2024-02-11T03:10:17.759Z,9.75
2024-02-11T03:11:17.599Z,9.70
2024-02-11T03:12:17.533Z,9.70
2024-02-11T03:13:17.559Z,9.71
2024-02-11T03:14:17.572Z,9.75
2024-02-11T03:15:17.499Z,9.76
2024-02-11T03:16:17.532Z,9.67
2024-02-11T03:17:17.520Z,9.64
2024-02-11T03:18:17.532Z,9.63
2024-02-11T03:19:17.421Z,9.67
2024-02-11T03:20:17.555Z,9.71
2024-02-11T03:21:17.402Z,9.71
2024-02-11T03:22:17.380Z,9.71
2024-02-11T03:23:17.441Z,9.71
2024-02-11T03:24:17.379Z,9.79
2024-02-11T03:25:17.374Z,9.81
2024-02-11T03:26:17.479Z,9.86
2024-02-11T03:27:17.417Z,9.78
2024-02-11T03:28:17.327Z,9.82
2024-02-11T03:29:17.299Z,9.81
2024-02-11T03:30:17.313Z,9.82
2024-02-11T03:31:17.303Z,9.82
2024-02-11T03:32:17.565Z,9.76
2024-02-11T03:33:17.424Z,9.76
2024-02-11T03:34:17.449Z,9.71
2024-02-11T03:35:17.287Z,9.73
2024-02-11T03:36:17.244Z,9.78
2024-02-11T03:37:17.253Z,9.75
2024-02-11T03:38:17.445Z,9.78
2024-02-11T03:39:17.205Z,9.78
2024-02-11T03:40:17.599Z,9.81
2024-02-11T03:41:17.181Z,9.76
2024-02-11T03:42:17.170Z,9.73
2024-02-11T03:43:17.167Z,9.71
2024-02-11T03:44:17.249Z,9.70
2024-02-11T03:45:17.278Z,9.70
2024-02-11T03:46:17.233Z,9.60
2024-02-11T03:47:17.283Z,9.60
2024-02-11T03:48:17.241Z,9.61
2024-02-11T03:49:17.114Z,9.61
2024-02-11T03:50:17.507Z,9.64
2024-02-11T03:51:17.126Z,9.70
2024-02-11T03:52:17.108Z,9.73
2024-02-11T03:53:17.087Z,9.71
2024-02-11T03:54:17.006Z,9.78
2024-02-11T03:55:17.101Z,9.75
2024-02-11T03:56:17.109Z,9.71
2024-02-11T03:57:17.127Z,9.76
2024-02-11T03:58:17.067Z,9.78
2024-02-11T03:59:16.993Z,9.78
2024-02-11T04:00:16.989Z,9.71
2024-02-11T04:01:16.969Z,9.76
2024-02-11T04:02:16.985Z,9.76
2024-02-11T04:03:18.205Z,9.75
2024-02-11T04:04:16.989Z,9.73
2024-02-11T04:05:16.942Z,9.73
2024-02-11T04:06:16.899Z,9.70
2024-02-11T04:07:16.860Z,9.71
2024-02-11T04:08:17.045Z,9.78
2024-02-11T04:09:16.848Z,9.81
2024-02-11T04:10:16.950Z,9.75
2024-02-11T04:11:16.923Z,9.76
2024-02-11T04:12:16.809Z,9.76
2024-02-11T04:13:16.801Z,9.73
2024-02-11T04:14:17.071Z,9.64
2024-02-11T04:15:16.894Z,9.64
2024-02-11T04:16:17.066Z,9.67
2024-02-11T04:17:16.862Z,9.70
2024-02-11T04:18:16.811Z,9.70
2024-02-11T04:19:16.750Z,9.71
2024-02-11T04:20:16.901Z,9.63
2024-02-11T04:21:16.859Z,9.53
2024-02-11T04:22:16.791Z,9.53
2024-02-11T04:23:16.741Z,9.53
2024-02-11T04:24:16.679Z,9.57
2024-02-11T04:25:16.674Z,9.58
2024-02-11T04:26:16.729Z,9.60
2024-02-11T04:27:16.651Z,9.63
2024-02-11T04:28:16.654Z,9.67
2024-02-11T04:29:16.638Z,9.68
2024-02-11T04:30:16.619Z,9.70
2024-02-11T04:31:16.610Z,9.68
2024-02-11T04:32:16.616Z,9.68
2024-02-11T04:33:16.870Z,9.66
2024-02-11T04:34:16.715Z,9.64
2024-02-11T04:35:16.651Z,9.68
2024-02-11T04:36:16.531Z,9.67
2024-02-11T04:37:16.548Z,9.67
2024-02-11T04:38:16.886Z,9.67
2024-02-11T04:39:16.513Z,9.66
2024-02-11T04:40:16.576Z,9.66
2024-02-11T04:41:16.524Z,9.63
2024-02-11T04:42:16.454Z,9.63
2024-02-11T04:43:16.447Z,9.64
2024-02-11T04:44:16.533Z,9.64
2024-02-11T04:45:16.481Z,9.66
2024-02-11T04:46:16.501Z,9.73
2024-02-11T04:47:16.478Z,9.70
2024-02-11T04:48:16.499Z,9.68
2024-02-11T04:49:16.415Z,9.66
2024-02-11T04:50:16.433Z,9.67
2024-02-11T04:51:16.536Z,9.61
2024-02-11T04:52:16.394Z,9.60
2024-02-11T04:53:16.443Z,9.60
2024-02-11T04:54:16.335Z,9.58
2024-02-11T04:55:16.347Z,9.60
2024-02-11T04:56:16.333Z,9.60
2024-02-11T04:57:16.363Z,9.60
2024-02-11T04:58:18.049Z,9.60
2024-02-11T04:59:16.530Z,9.63
2024-02-11T05:00:16.276Z,9.63
2024-02-11T05:01:16.302Z,9.58
2024-02-11T05:02:16.369Z,9.53
2024-02-11T05:03:16.291Z,9.49
2024-02-11T05:04:16.387Z,9.52
2024-02-11T05:05:16.339Z,9.57
2024-02-11T05:06:16.239Z,9.58
2024-02-11T05:07:16.198Z,9.60
2024-02-11T05:08:16.207Z,9.61
2024-02-11T05:09:16.189Z,9.61
2024-02-11T05:10:16.318Z,9.67
2024-02-11T05:11:16.285Z,9.66
2024-02-11T05:12:16.133Z,9.64
2024-02-11T05:13:16.112Z,9.64
2024-02-11T05:14:16.170Z,9.64
2024-02-11T05:15:16.112Z,9.61
2024-02-11T05:16:16.294Z,9.61
2024-02-11T05:17:16.247Z,9.63
2024-02-11T05:18:16.272Z,9.64
2024-02-11T05:19:16.246Z,9.63
2024-02-11T05:20:16.084Z,9.61
2024-02-11T05:21:16.076Z,9.61
2024-02-11T05:22:16.162Z,9.63
2024-02-11T05:23:16.100Z,9.66
2024-02-11T05:24:16.008Z,9.64
2024-02-11T05:25:16.077Z,9.64
2024-02-11T05:26:16.009Z,9.58
2024-02-11T05:27:15.977Z,9.61
2024-02-11T05:28:16.061Z,9.61
2024-02-11T05:29:16.073Z,9.63
2024-02-11T05:30:16.000Z,9.60
2024-02-11T05:31:15.923Z,9.53
2024-02-11T05:32:15.975Z,9.52
2024-02-11T05:33:16.028Z,9.49
2024-02-11T05:34:16.009Z,9.53
2024-02-11T05:35:15.914Z,9.52
2024-02-11T05:36:15.875Z,9.50
2024-02-11T05:37:15.892Z,9.53
2024-02-11T05:38:16.176Z,9.48
2024-02-11T05:39:15.852Z,9.42
2024-02-11T05:40:15.890Z,9.42
2024-02-11T05:41:15.910Z,9.35
2024-02-11T05:42:15.815Z,9.30
2024-02-11T05:43:15.781Z,9.30
2024-02-11T05:44:15.887Z,9.24
2024-02-11T05:45:15.776Z,9.27
2024-02-11T05:46:15.878Z,9.31
2024-02-11T05:47:15.827Z,9.32
2024-02-11T05:48:16.131Z,9.34
2024-02-11T05:49:15.763Z,9.30
2024-02-11T05:50:15.827Z,9.30
2024-02-11T05:51:15.716Z,9.32
2024-02-11T05:52:15.766Z,9.34
2024-02-11T05:53:15.811Z,9.35
2024-02-11T05:54:15.688Z,9.31
2024-02-11T05:55:15.708Z,9.32
2024-02-11T05:56:15.709Z,9.32
2024-02-11T05:57:15.628Z,9.38
2024-02-11T05:58:15.770Z,9.38
2024-02-11T05:59:15.845Z,9.39
2024-02-11T06:00:15.807Z,9.38
2024-02-11T06:01:15.600Z,9.39
2024-02-11T06:02:15.752Z,9.39
2024-02-11T06:03:15.605Z,9.39
2024-02-11T06:04:15.741Z,9.34
2024-02-11T06:05:15.699Z,9.30
2024-02-11T06:06:15.579Z,9.34
2024-02-11T06:07:15.537Z,9.32
2024-02-11T06:08:15.633Z,9.34
2024-02-11T06:09:15.573Z,9.30
2024-02-11T06:10:15.628Z,9.28
2024-02-11T06:11:15.553Z,9.28
2024-02-11T06:12:15.419Z,9.31
2024-02-11T06:13:15.411Z,9.31
2024-02-11T06:14:15.428Z,9.28
2024-02-11T06:15:15.406Z,9.24
2024-02-11T06:16:15.450Z,9.28
2024-02-11T06:17:15.520Z,9.30
2024-02-11T06:18:15.400Z,9.27
2024-02-11T06:19:15.414Z,9.25
2024-02-11T06:20:15.374Z,9.21
2024-02-11T06:21:15.345Z,9.20
2024-02-11T06:22:15.429Z,9.18
2024-02-11T06:23:15.483Z,9.15
2024-02-11T06:24:15.380Z,9.20
2024-02-11T06:25:15.302Z,9.25
2024-02-11T06:26:15.360Z,9.20
2024-02-11T06:27:15.286Z,9.18
2024-02-11T06:28:15.334Z,9.18
2024-02-11T06:29:15.385Z,9.23
2024-02-11T06:30:15.375Z,9.23
2024-02-11T06:31:15.226Z,9.24
2024-02-11T06:32:15.335Z,9.24
2024-02-11T06:33:15.250Z,9.25
2024-02-11T06:34:15.329Z,9.30
2024-02-11T06:35:15.270Z,9.30
2024-02-11T06:36:15.363Z,9.23
2024-02-11T06:37:15.165Z,9.18
2024-02-11T06:38:15.235Z,9.16
2024-02-11T06:39:15.106Z,9.16
2024-02-11T06:40:15.253Z,9.15
2024-02-11T06:41:15.194Z,9.13
2024-02-11T06:42:15.100Z,9.13
2024-02-11T06:43:15.213Z,9.10
2024-02-11T06:44:15.139Z,9.09
2024-02-11T06:45:15.065Z,9.09
2024-02-11T06:46:15.117Z,8.97
2024-02-11T06:47:15.162Z,8.94
2024-02-11T06:48:15.141Z,8.97
2024-02-11T06:49:15.019Z,9.01
2024-02-11T06:50:15.137Z,8.97
2024-02-11T06:51:15.057Z,9.05
2024-02-11T06:52:15.066Z,8.96
2024-02-11T06:53:15.100Z,8.96
2024-02-11T06:54:14.970Z,8.96
2024-02-11T06:55:14.965Z,8.96
2024-02-11T06:56:14.997Z,8.97
2024-02-11T06:57:14.947Z,9.01
2024-02-11T06:58:15.073Z,8.97
2024-02-11T06:59:15.062Z,9.01
2024-02-11T07:00:14.966Z,8.99
2024-02-11T07:01:14.866Z,9.04
2024-02-11T07:02:14.953Z,9.10
2024-02-11T07:03:14.902Z,9.13
2024-02-11T07:04:14.943Z,9.15
2024-02-11T07:05:14.961Z,9.13
2024-02-11T07:06:14.973Z,9.13
2024-02-11T07:07:14.885Z,9.10
2024-02-11T07:08:14.781Z,9.04
2024-02-11T07:09:14.800Z,9.04
2024-02-11T07:10:15.936Z,9.04
2024-02-11T07:11:15.211Z,8.96
2024-02-11T07:12:14.762Z,8.96
2024-02-11T07:13:14.761Z,8.99
2024-02-11T07:14:14.932Z,9.02
2024-02-11T07:15:14.769Z,9.05
2024-02-11T07:16:14.793Z,9.02
2024-02-11T07:17:14.863Z,8.94
2024-02-11T07:18:14.902Z,8.87
2024-02-11T07:19:15.307Z,8.88
2024-02-11T07:20:14.763Z,8.88
2024-02-11T07:21:14.755Z,8.93
2024-02-11T07:22:14.674Z,8.94
2024-02-11T07:23:14.885Z,8.91
2024-02-11T07:24:15.174Z,8.88
2024-02-11T07:25:15.152Z,8.88
2024-02-11T07:26:14.674Z,8.90
2024-02-11T07:27:14.770Z,8.90
2024-02-11T07:28:16.660Z,8.93
2024-02-11T07:29:14.892Z,8.97
2024-02-11T07:30:14.740Z,9.04
2024-02-11T07:31:14.991Z,9.10
2024-02-11T07:32:15.272Z,9.09
2024-02-11T07:33:14.650Z,8.99
2024-02-11T07:34:17.005Z,8.91
2024-02-11T07:35:15.050Z,8.96
2024-02-11T07:36:14.510Z,8.96
2024-02-11T07:37:14.481Z,8.87
2024-02-11T07:38:14.494Z,8.90
2024-02-11T07:39:14.446Z,8.83
2024-02-11T07:40:14.560Z,8.81
2024-02-11T07:41:14.480Z,8.88
2024-02-11T07:42:14.386Z,8.91
2024-02-11T07:43:14.389Z,8.94
2024-02-11T07:44:14.508Z,8.99
2024-02-11T07:45:14.369Z,9.10
2024-02-11T07:46:14.416Z,9.13
2024-02-11T07:47:14.450Z,9.18
2024-02-11T07:48:14.458Z,9.09
2024-02-11T07:49:14.482Z,9.01
2024-02-11T07:50:14.411Z,8.96
2024-02-11T07:51:14.320Z,8.96
2024-02-11T07:52:14.353Z,8.91
2024-02-11T07:53:14.296Z,8.90
2024-02-11T07:54:14.260Z,8.93
2024-02-11T07:55:14.425Z,8.97
2024-02-11T07:56:14.384Z,9.06
2024-02-11T07:57:14.365Z,9.15
2024-02-11T07:58:14.334Z,9.12
2024-02-11T07:59:14.459Z,9.12
2024-02-11T08:00:14.196Z,9.12
2024-02-11T08:01:14.392Z,9.16
2024-02-11T08:02:14.647Z,9.24
2024-02-11T08:03:14.316Z,9.31
2024-02-11T08:04:14.330Z,9.32
2024-02-11T08:05:14.342Z,9.32
2024-02-11T08:06:14.223Z,9.32
2024-02-11T08:07:14.256Z,9.39
2024-02-11T08:08:14.217Z,9.28
2024-02-11T08:09:14.328Z,9.20
2024-02-11T08:10:14.124Z,9.10
2024-02-11T08:11:14.282Z,9.10
2024-02-11T08:12:14.065Z,9.15
2024-02-11T08:13:14.111Z,9.18
2024-02-11T08:14:14.171Z,9.21
2024-02-11T08:15:14.215Z,9.27
2024-02-11T08:16:14.082Z,9.27
2024-02-11T08:17:14.162Z,9.25
2024-02-11T08:18:14.102Z,9.18
2024-02-11T08:19:14.065Z,9.15
2024-02-11T08:20:14.048Z,9.15
2024-02-11T08:21:14.042Z,9.09
2024-02-11T08:22:13.978Z,9.04
2024-02-11T08:23:13.969Z,9.04
2024-02-11T08:24:13.972Z,9.05
2024-02-11T08:25:13.937Z,9.05
2024-02-11T08:26:14.029Z,9.12
2024-02-11T08:27:13.952Z,9.05
2024-02-11T08:28:13.922Z,9.09
2024-02-11T08:29:13.979Z,9.13
2024-02-11T08:30:13.928Z,9.23
2024-02-11T08:31:13.940Z,9.23
2024-02-11T08:32:13.922Z,9.18
2024-02-11T08:33:14.010Z,9.18
2024-02-11T08:34:14.045Z,9.18
2024-02-11T08:35:14.296Z,9.12
2024-02-11T08:36:13.802Z,9.06
2024-02-11T08:37:13.808Z,9.10
2024-02-11T08:38:13.853Z,9.13
2024-02-11T08:39:13.779Z,9.16
2024-02-11T08:40:13.881Z,9.24
2024-02-11T08:41:13.843Z,9.31
2024-02-11T08:42:13.787Z,9.32
2024-02-11T08:43:13.766Z,9.35
2024-02-11T08:44:13.843Z,9.39
2024-02-11T08:45:13.807Z,9.43
2024-02-11T08:46:13.715Z,9.43
2024-02-11T08:47:13.740Z,9.35
2024-02-11T08:48:13.740Z,9.39
2024-02-11T08:49:13.711Z,9.32
2024-02-11T08:50:13.762Z,9.25
2024-02-11T08:51:13.752Z,9.16
2024-02-11T08:52:13.646Z,9.16
2024-02-11T08:53:13.646Z,9.15
2024-02-11T08:54:13.599Z,9.21
2024-02-11T08:55:13.579Z,9.16
2024-02-11T08:56:13.674Z,9.20
2024-02-11T08:57:14.009Z,9.20
2024-02-11T08:58:13.526Z,9.18
2024-02-11T08:59:13.633Z,9.16
2024-02-11T09:00:13.506Z,9.18
2024-02-11T09:01:13.660Z,9.16
2024-02-11T09:02:13.544Z,9.12
2024-02-11T09:03:13.519Z,9.12
2024-02-11T09:04:13.553Z,9.06
2024-02-11T09:05:13.822Z,9.10
2024-02-11T09:06:13.613Z,9.12
2024-02-11T09:07:13.478Z,9.23
2024-02-11T09:08:13.499Z,9.27
2024-02-11T09:09:13.472Z,9.34
2024-02-11T09:10:13.475Z,9.43
2024-02-11T09:11:13.470Z,9.42
2024-02-11T09:12:13.447Z,9.35
2024-02-11T09:13:13.416Z,9.42
2024-02-11T09:14:13.432Z,9.46
2024-02-11T09:15:15.557Z,9.48
2024-02-11T09:16:13.429Z,9.53
2024-02-11T09:17:13.451Z,9.52
2024-02-11T09:18:13.373Z,9.49
2024-02-11T09:19:15.096Z,9.42
2024-02-11T09:20:13.382Z,9.39
2024-02-11T09:21:13.365Z,9.32
2024-02-11T09:22:13.372Z,9.27
2024-02-11T09:23:13.450Z,9.23
2024-02-11T09:24:13.256Z,9.28
2024-02-11T09:25:13.296Z,9.35
2024-02-11T09:26:15.005Z,9.38
2024-02-11T09:27:13.268Z,9.40
2024-02-11T09:28:13.311Z,9.40
2024-02-11T09:29:13.256Z,9.49
2024-02-11T09:30:13.261Z,9.52
2024-02-11T09:31:13.208Z,9.52
2024-02-11T09:32:13.328Z,9.56
2024-02-11T09:33:13.318Z,9.53
2024-02-11T09:34:13.262Z,9.56
2024-02-11T09:35:13.221Z,9.58
2024-02-11T09:36:13.146Z,9.67
2024-02-11T09:37:13.228Z,9.50
2024-02-11T09:38:20.394Z,9.48
2024-02-11T09:39:13.084Z,9.42
2024-02-11T09:40:13.032Z,9.40
2024-02-11T09:41:13.206Z,9.49
2024-02-11T09:42:13.037Z,9.52
2024-02-11T09:43:13.218Z,9.48
2024-02-11T09:44:13.130Z,9.49
2024-02-11T09:45:13.086Z,9.58
2024-02-11T09:46:12.991Z,9.49
2024-02-11T09:47:13.021Z,9.48
2024-02-11T09:48:13.040Z,9.49
2024-02-11T09:49:13.023Z,9.52
2024-02-11T09:50:13.092Z,9.56
2024-02-11T09:51:12.981Z,9.60
2024-02-11T09:52:12.981Z,9.52
2024-02-11T09:53:13.025Z,9.48
2024-02-11T09:54:12.889Z,9.46
2024-02-11T09:55:13.009Z,9.48
2024-02-11T09:56:12.896Z,9.52
2024-02-11T09:57:12.919Z,9.58
2024-02-11T09:58:12.881Z,9.60
2024-02-11T09:59:12.958Z,9.57
2024-02-11T10:00:12.991Z,9.63
2024-02-11T10:01:12.845Z,9.67
2024-02-11T10:02:12.874Z,9.66
2024-02-11T10:03:13.913Z,9.70
2024-02-11T10:04:12.850Z,9.76
2024-02-11T10:05:13.428Z,9.70
2024-02-11T10:06:12.880Z,9.66
2024-02-11T10:07:12.855Z,9.61
2024-02-11T10:08:12.915Z,9.61
2024-02-11T10:09:12.783Z,9.67
2024-02-11T10:10:13.977Z,9.64
2024-02-11T10:11:12.743Z,9.67
2024-02-11T10:12:12.918Z,9.75
2024-02-11T10:13:12.666Z,9.76
2024-02-11T10:14:12.730Z,9.79
2024-02-11T10:15:12.727Z,9.86
2024-02-11T10:16:12.687Z,9.93
2024-02-11T10:17:12.706Z,10.00
2024-02-11T10:18:12.765Z,10.04
2024-02-11T10:19:13.020Z,10.09
2024-02-11T10:20:12.766Z,10.07
2024-02-11T10:21:12.697Z,9.99
2024-02-11T10:22:19.980Z,10.00
2024-02-11T10:23:12.835Z,10.01
2024-02-11T10:24:12.980Z,10.00
2024-02-11T10:25:12.946Z,10.01
2024-02-11T10:26:12.577Z,10.07
2024-02-11T10:27:12.542Z,10.06
2024-02-11T10:28:12.508Z,10.14
2024-02-11T10:29:12.522Z,10.18
2024-02-11T10:30:12.765Z,10.18
2024-02-11T10:31:12.761Z,10.19
2024-02-11T10:32:12.596Z,10.19
2024-02-11T10:33:12.554Z,10.17
2024-02-11T10:34:12.613Z,10.07
2024-02-11T10:35:13.411Z,10.03
2024-02-11T10:36:12.719Z,10.04
2024-02-11T10:37:12.494Z,10.03
2024-02-11T10:38:12.470Z,9.99
2024-02-11T10:39:12.400Z,10.04
2024-02-11T10:40:12.409Z,10.09
2024-02-11T10:41:12.563Z,10.04
2024-02-11T10:42:12.532Z,10.03
2024-02-11T10:43:12.458Z,9.99
2024-02-11T10:44:12.453Z,9.96
2024-02-11T10:45:12.651Z,9.97
2024-02-11T10:46:12.346Z,10.00
2024-02-11T10:47:12.420Z,10.03
2024-02-11T10:48:12.475Z,10.00
2024-02-11T10:49:12.321Z,9.93
2024-02-11T10:50:12.337Z,9.91
2024-02-11T10:51:12.330Z,9.93
2024-02-11T10:52:12.323Z,9.94
2024-02-11T10:53:12.341Z,9.86
2024-02-11T10:54:12.467Z,9.85
2024-02-11T10:55:12.541Z,9.82
2024-02-11T10:56:12.345Z,9.88
2024-02-11T10:57:12.245Z,9.91
2024-02-11T10:58:12.235Z,9.88
2024-02-11T10:59:12.191Z,9.93
2024-02-11T11:00:12.207Z,9.94
2024-02-11T11:01:12.226Z,9.97
2024-02-11T11:02:12.161Z,10.00
2024-02-11T11:03:12.190Z,9.96
2024-02-11T11:04:12.932Z,9.97
2024-02-11T11:05:12.193Z,9.97
2024-02-11T11:06:12.176Z,10.03
2024-02-11T11:07:12.055Z,10.03
2024-02-11T11:08:12.109Z,10.01
2024-02-11T11:09:12.059Z,10.01
2024-02-11T11:10:12.521Z,10.00
2024-02-11T11:11:12.093Z,10.00
2024-02-11T11:12:12.068Z,10.01
2024-02-11T11:13:11.986Z,10.00
2024-02-11T11:14:12.082Z,9.99
2024-02-11T11:15:12.020Z,9.94
2024-02-11T11:16:12.138Z,9.94
2024-02-11T11:17:15.365Z,9.97
2024-02-11T11:18:12.714Z,9.97
2024-02-11T11:19:11.932Z,9.97
2024-02-11T11:20:12.063Z,9.99
2024-02-11T11:21:11.938Z,10.00
2024-02-11T11:22:11.980Z,10.00
2024-02-11T11:23:12.043Z,9.96
2024-02-11T11:24:11.956Z,9.96
2024-02-11T11:25:11.862Z,10.01
2024-02-11T11:26:12.372Z,10.03
2024-02-11T11:27:11.935Z,10.00
2024-02-11T11:28:11.909Z,9.96
2024-02-11T11:29:11.882Z,9.96
2024-02-11T11:30:11.798Z,9.97
2024-02-11T11:31:11.783Z,9.94
2024-02-11T11:32:11.802Z,10.01
2024-02-11T11:33:11.939Z,10.07
2024-02-11T11:34:11.904Z,10.10
2024-02-11T11:35:11.771Z,10.09
2024-02-11T11:36:11.733Z,10.06
2024-02-11T11:37:11.733Z,10.00
2024-02-11T11:38:11.744Z,10.03
2024-02-11T11:39:11.733Z,10.04
2024-02-11T11:40:11.718Z,10.06
2024-02-11T11:41:11.882Z,10.07
2024-02-11T11:42:11.667Z,10.09
2024-02-11T11:43:11.665Z,10.07
2024-02-11T11:44:11.840Z,10.04
2024-02-11T11:45:11.821Z,10.09
2024-02-11T11:46:11.694Z,10.12
2024-02-11T11:47:11.713Z,10.12
2024-02-11T11:48:11.973Z,10.12
2024-02-11T11:49:11.608Z,10.07
2024-02-11T11:50:11.625Z,10.10
2024-02-11T11:51:11.620Z,10.06
2024-02-11T11:52:11.650Z,10.07
2024-02-11T11:53:11.549Z,10.09
2024-02-11T11:54:11.585Z,10.07
2024-02-11T11:55:11.519Z,10.06
2024-02-11T11:56:11.690Z,10.10
2024-02-11T11:57:11.556Z,10.09
2024-02-11T11:58:11.502Z,10.07
2024-02-11T11:59:11.520Z,10.09
2024-02-11T12:00:11.486Z,10.04
2024-02-11T12:01:11.510Z,10.01
2024-02-11T12:02:12.356Z,10.04
2024-02-11T12:03:11.488Z,10.01
2024-02-11T12:04:11.477Z,10.09
2024-02-11T12:05:12.531Z,10.09
2024-02-11T12:06:11.465Z,10.10
2024-02-11T12:07:11.468Z,10.12
2024-02-11T12:08:11.421Z,10.10
2024-02-11T12:09:11.451Z,10.07
2024-02-11T12:10:11.404Z,10.03
2024-02-11T12:11:11.397Z,10.01
2024-02-11T12:12:11.393Z,10.06
2024-02-11T12:13:11.303Z,10.01
2024-02-11T12:14:11.351Z,10.03
2024-02-11T12:15:11.444Z,10.06
2024-02-11T12:16:11.309Z,10.01
2024-02-11T12:17:11.317Z,10.01
2024-02-11T12:18:11.292Z,9.99
2024-02-11T12:19:11.279Z,9.99
2024-02-11T12:20:11.281Z,10.00
2024-02-11T12:21:11.335Z,10.01
2024-02-11T12:22:11.239Z,9.99
2024-02-11T12:23:11.294Z,10.03
2024-02-11T12:24:11.184Z,9.99
2024-02-11T12:25:11.220Z,10.00
2024-02-11T12:26:11.227Z,10.01
2024-02-11T12:27:11.203Z,9.99
2024-02-11T12:28:11.210Z,9.99
2024-02-11T12:29:11.172Z,10.03
2024-02-11T12:30:11.159Z,10.09
2024-02-11T12:31:11.192Z,10.15
2024-02-11T12:32:11.168Z,10.18
2024-02-11T12:33:11.244Z,10.22
2024-02-11T12:34:11.197Z,10.21
2024-02-11T12:35:11.087Z,10.17
2024-02-11T12:36:11.088Z,10.10
2024-02-11T12:37:11.008Z,10.04
2024-02-11T12:38:11.113Z,10.03
2024-02-11T12:39:11.062Z,10.06
2024-02-11T12:40:11.121Z,10.04
2024-02-11T12:41:11.117Z,10.09
2024-02-11T12:42:10.995Z,10.07
2024-02-11T12:43:10.993Z,10.12
2024-02-11T12:44:11.013Z,10.07
2024-02-11T12:45:13.925Z,10.03
2024-02-11T12:46:11.037Z,10.01
2024-02-11T12:47:10.959Z,10.00
2024-02-11T12:48:10.968Z,9.94
2024-02-11T12:49:10.945Z,9.96
2024-02-11T12:50:11.029Z,9.96
2024-02-11T12:51:10.970Z,9.94
2024-02-11T12:52:12.701Z,9.94
2024-02-11T12:53:10.953Z,9.91
2024-02-11T12:54:10.874Z,9.89
2024-02-11T12:55:10.840Z,9.85
2024-02-11T12:56:10.876Z,9.88
2024-02-11T12:57:10.935Z,9.85
2024-02-11T12:58:10.856Z,9.83
2024-02-11T12:59:10.862Z,9.83
2024-02-11T13:00:10.774Z,9.82
2024-02-11T13:01:10.820Z,9.78
2024-02-11T13:02:10.798Z,9.75
2024-02-11T13:03:10.927Z,9.70
2024-02-11T13:04:10.920Z,9.66
2024-02-11T13:05:10.742Z,9.67
2024-02-11T13:06:10.924Z,9.66
2024-02-11T13:07:10.768Z,9.66
2024-02-11T13:08:10.758Z,9.61
2024-02-11T13:09:10.708Z,9.61
2024-02-11T13:10:10.739Z,9.66
2024-02-11T13:11:10.723Z,9.61
2024-02-11T13:12:10.743Z,9.63